Pukwana, South Dakota
Current Conditions -  °F | °C
As of 2:15 AM on Sunday 26 Oct 2014 (Local Time) from K9V9 Reporting Station
Clear Clear  
Wind Chill: 40°   Ceiling: Unl
Heat Index: 46°   Visibility: 10mi
Dew Point: 34°   Wind: 10mph
Humidity: 64%   Direction: 120°ESE
Pressure: 29.9"   Gusts: NA
Location:  43.78°N, 99.18°W
Report Text: K9V9 260715Z AUTO 12009KT 10SM CLR 08/01 A2990 RMK AO2 T00750010
Loading
Personal Weather Stations






























Interactive Weather Map
Tropical Storm Tracking
New forecast layout! Learn more

10-Day Weather Forecast

Advertisements
Track Severe Weather on mobile